Aérodrome :
LOGIN :

S'inscrire | Disclaimer

   EN    FR    IT 

 










Légende :    VFR   VFR Marginal   IFR   IFR Intensif   IFR Très Intensif
Visi : 
Plafond : 
>= 8 km
>= 3000ft
5 à 8 km
1000 à 3000 ft
1500m à 5 km
500 à 1000 ft
800 à 1500m
200 à 500 ft
< 800m
< 200 ft
Symboles :   Orages  Brouillard  Fortes neiges  Fortes précipitations  Vent > 20 kt
SIGMETs :   Divers  Orages  Givrage  Turbulence  Onde Orograph.  Cendres Volcan.







- Altitude de l'aérodrome : 424 ft
- Code IATA : QGY


LHPR - Györ Per

DERNIER METAR :
  • 151145Z 00000KT 9999 -RA BKN026 BKN083 06/03 Q1001 RERA RMK BLU

METARs EXPIRÉS :
  • 151115Z VRB01KT 9999 -RA BKN033 BKN083 06/03 Q1001 RERA RMK BLU
  • 151045Z 22003KT 190V260 9999 -RA BKN033 BKN083 06/03 Q1001 RERA RMK BLU
  • 151015Z 29004KT 250V330 9999 -RA NSC 06/03 Q1000 RERA RMK BLU
  • 150945Z 30006KT 270V330 9999 SCT040 BKN083 07/03 Q1000 RMK BLU
  • 150915Z 27008KT 9999 BKN033 SCT083 06/04 Q1000 RMK BLU

TAF TAF LHPR
Valide du 15 à 12h jusqu'au 15 à 21h UTC


151115Z 1512/1521 24007KT 9999 -RA BKN030 BKN080
BECMG 1512/1514 34006KT NSW
Pas de NOTAMs connus pour ce terrain.
1 SIGMET publié pour la FIR Budapest (LHCC) :
 
Orages noyés dans la masse
LHCC SIGMET 05 VALID 151020/151220 LHBP
LHCC BUDAPEST FIR EMBD TS OBS APRX 40KM WID LINE BTN N4645 E01905 - N4705 E02150 TOP FL260 MOV NNE NC=



MET'MAP, la Météo Aéronautique d'un coup d'oeil ! - Copyright ORBIFLY Décembre 2007 - Disclaimer

ORBIFLY MET'MAP TEAM :

Programmation & Développement : Alexandra Zaïnal
Conception & Développement : Baudouin d'Aumeries
Co-Programmation & Développement : Marc-Olivier Méhu
Soutien technique & logistique : Manuel Goepfert

Contact : metmap@orbifly.com




SOURCES & CREDITS :

   NOAA